Time;durP1;ratioP1;P1;durP2;ratioP2;P2;SDS_P1;SDS_P2;PMS_P1;PMS_P2;Temp;Humidity;BMP_temperature;BMP_pressure;BME280_temperature;BME280_humidity;BME280_pressure;Samples;Min_cycle;Max_cycle;Signal;HPM_P1;HPM_P2
2020/12/12 00:01:47;;;;;;;10.60;5.33;;;5.30;94.50;;;;;;4841737;29;20046;-77
2020/12/12 00:04:16;;;;;;;10.82;6.13;;;5.30;94.50;;;;;;4842708;29;20129;-77
2020/12/12 00:06:43;;;;;;;7.60;4.20;;;5.30;94.50;;;;;;4839312;29;20045;-77
2020/12/12 00:09:10;;;;;;;9.23;5.33;;;5.30;94.50;;;;;;4843658;29;20045;-78
2020/12/12 00:11:36;;;;;;;10.87;6.17;;;5.30;94.50;;;;;;4812138;29;20491;-79
2020/12/12 00:14:03;;;;;;;10.17;6.07;;;5.30;94.50;;;;;;4815826;29;20042;-82
2020/12/12 00:16:29;;;;;;;10.90;6.10;;;5.30;94.50;;;;;;4823519;29;20065;-84
2020/12/12 00:18:58;;;;;;;9.97;5.67;;;5.30;94.50;;;;;;4813092;29;20074;-81
2020/12/12 00:21:24;;;;;;;9.07;4.97;;;5.30;94.50;;;;;;4812252;29;20046;-80
2020/12/12 00:23:51;;;;;;;10.57;5.73;;;5.40;94.50;;;;;;4795210;29;20411;-81
2020/12/12 00:26:21;;;;;;;11.37;6.40;;;5.30;94.50;;;;;;4821733;29;20049;-79
2020/12/12 00:28:48;;;;;;;12.50;7.17;;;5.40;94.50;;;;;;4820874;29;20054;-80
2020/12/12 00:31:19;;;;;;;10.10;5.10;;;5.40;94.50;;;;;;4830696;29;20085;-85
2020/12/12 00:33:47;;;;;;;9.93;5.33;;;5.40;94.50;;;;;;4836131;29;20194;-81
2020/12/12 00:36:14;;;;;;;10.70;5.70;;;5.40;94.50;;;;;;4826995;29;20464;-85
2020/12/12 00:38:40;;;;;;;11.37;5.30;;;5.40;94.50;;;;;;4834791;29;20436;-83
2020/12/12 00:41:07;;;;;;;11.80;5.40;;;5.40;94.50;;;;;;4833539;29;20491;-80
2020/12/12 00:43:34;;;;;;;8.93;4.73;;;5.40;94.50;;;;;;4813499;29;20076;-80
2020/12/12 00:46:01;;;;;;;9.60;5.77;;;5.40;94.60;;;;;;4825799;29;20054;-85
2020/12/12 00:48:28;;;;;;;12.00;5.90;;;5.40;94.60;;;;;;4820554;29;20114;-86
2020/12/12 00:50:55;;;;;;;11.60;6.27;;;5.40;94.50;;;;;;4808955;29;20074;-82
2020/12/12 00:53:21;;;;;;;10.17;5.57;;;5.40;94.60;;;;;;4832489;29;20121;-80
2020/12/12 00:55:48;;;;;;;9.30;4.67;;;5.40;94.50;;;;;;4826659;29;20068;-80
2020/12/12 00:58:14;;;;;;;10.33;5.87;;;5.50;94.60;;;;;;4842013;29;20403;-80
2020/12/12 01:00:41;;;;;;;8.50;4.87;;;5.50;94.60;;;;;;4827139;29;20102;-80
2020/12/12 01:03:07;;;;;;;10.23;4.97;;;5.50;94.60;;;;;;4826926;29;20395;-81
2020/12/12 01:05:34;;;;;;;9.30;4.70;;;5.50;94.90;;;;;;4811899;29;20046;-80
2020/12/12 01:08:01;;;;;;;9.93;5.13;;;5.50;94.60;;;;;;4826891;29;20038;-81
2020/12/12 01:10:49;;;;;;;8.47;4.30;;;5.50;94.60;;;;;;4829537;29;20406;-81
2020/12/12 01:13:15;;;;;;;8.73;4.73;;;5.50;94.60;;;;;;4827017;29;20049;-81
2020/12/12 01:15:45;;;;;;;8.30;4.63;;;5.50;94.60;;;;;;4811627;29;20050;-80
2020/12/12 01:18:12;;;;;;;8.80;4.80;;;5.50;94.60;;;;;;4826489;29;20375;-80
2020/12/12 01:20:40;;;;;;;9.90;4.20;;;5.50;94.60;;;;;;4842147;29;20491;-80
2020/12/12 01:23:07;;;;;;;8.70;4.33;;;5.50;94.60;;;;;;4827011;29;20042;-81
2020/12/12 01:25:37;;;;;;;10.20;4.87;;;5.50;94.60;;;;;;4824416;29;20133;-80
2020/12/12 01:28:07;;;;;;;11.00;5.33;;;5.50;94.60;;;;;;4827021;29;20098;-80
2020/12/12 01:30:34;;;;;;;10.07;4.50;;;5.50;94.60;;;;;;4826800;29;20053;-80
2020/12/12 01:33:00;;;;;;;9.30;4.80;;;5.50;94.60;;;;;;4842987;29;20121;-80
2020/12/12 01:35:27;;;;;;;10.80;5.70;;;5.50;94.60;;;;;;4839193;29;20049;-80
2020/12/12 01:37:53;;;;;;;10.63;5.70;;;5.60;94.60;;;;;;4826675;29;20513;-80
2020/12/12 01:40:20;;;;;;;10.30;5.33;;;5.50;94.60;;;;;;4841792;29;20045;-80
2020/12/12 01:42:48;;;;;;;9.60;5.50;;;5.60;94.60;;;;;;4813143;29;20080;-80
2020/12/12 01:45:14;;;;;;;11.27;6.13;;;5.60;94.60;;;;;;4811404;29;20061;-80
2020/12/12 01:47:41;;;;;;;11.33;6.30;;;5.60;94.60;;;;;;4841506;29;20050;-80
2020/12/12 01:50:08;;;;;;;11.20;6.10;;;5.60;94.60;;;;;;4815125;29;20835;-80
2020/12/12 01:52:35;;;;;;;10.53;4.97;;;5.60;94.60;;;;;;4841228;29;20102;-79
2020/12/12 01:55:03;;;;;;;13.30;6.50;;;5.60;94.60;;;;;;4823993;29;20133;-80
2020/12/12 01:57:29;;;;;;;10.27;5.20;;;5.60;94.60;;;;;;4811145;29;20098;-79
2020/12/12 01:59:56;;;;;;;12.40;5.93;;;5.60;94.60;;;;;;4842599;29;20041;-80
2020/12/12 02:02:23;;;;;;;13.80;7.00;;;5.60;94.60;;;;;;4841333;29;20052;-80
2020/12/12 02:04:54;;;;;;;14.80;7.00;;;5.60;94.60;;;;;;4857544;29;20053;-80
2020/12/12 02:07:22;;;;;;;12.60;6.30;;;5.60;94.60;;;;;;4852270;29;20046;-80
2020/12/12 02:09:49;;;;;;;11.27;5.73;;;5.60;94.60;;;;;;4811012;29;20058;-80
2020/12/12 02:12:19;;;;;;;10.93;5.90;;;5.60;94.60;;;;;;4826356;29;20046;-80
2020/12/12 02:14:45;;;;;;;11.70;6.53;;;5.60;94.60;;;;;;4840902;29;20053;-80
2020/12/12 02:17:13;;;;;;;11.90;6.43;;;5.60;94.60;;;;;;4813453;29;20049;-80
2020/12/12 02:19:39;;;;;;;11.63;6.87;;;5.60;94.90;;;;;;4841503;29;20061;-80
2020/12/12 02:22:07;;;;;;;13.60;6.47;;;5.60;94.60;;;;;;4826003;29;20057;-80
2020/12/12 02:24:34;;;;;;;13.50;6.93;;;5.60;94.60;;;;;;4810838;29;20072;-80
2020/12/12 02:27:06;;;;;;;13.27;6.47;;;5.60;94.60;;;;;;4813157;29;20080;-80
2020/12/12 02:29:44;;;;;;;10.48;5.90;;;5.60;94.60;;;;;;4832128;29;20041;-80
2020/12/12 02:32:11;;;;;;;13.30;6.33;;;5.60;94.60;;;;;;4842280;29;20042;-80
2020/12/12 02:34:38;;;;;;;9.63;5.63;;;5.60;94.60;;;;;;4809925;29;20419;-80
2020/12/12 02:37:05;;;;;;;10.47;6.20;;;5.60;94.60;;;;;;4827033;29;20061;-80
2020/12/12 02:39:31;;;;;;;10.83;5.80;;;5.60;94.60;;;;;;4837487;29;20038;-80
2020/12/12 02:41:58;;;;;;;11.10;6.33;;;5.70;94.70;;;;;;4813237;29;20054;-80
2020/12/12 02:44:25;;;;;;;10.97;5.97;;;5.70;94.90;;;;;;4825863;29;20140;-80
2020/12/12 02:46:51;;;;;;;12.03;6.07;;;5.70;94.60;;;;;;4811472;29;20084;-80
2020/12/12 02:49:18;;;;;;;9.20;4.87;;;5.70;94.60;;;;;;4829327;29;20050;-81
2020/12/12 02:51:45;;;;;;;11.37;5.63;;;5.70;94.60;;;;;;4829066;29;20042;-80
2020/12/12 02:54:12;;;;;;;10.47;4.90;;;5.70;94.60;;;;;;4814438;29;20102;-80
2020/12/12 02:56:38;;;;;;;9.83;5.60;;;5.70;94.60;;;;;;4799180;29;20045;-81
2020/12/12 02:59:05;;;;;;;10.03;5.23;;;5.70;94.60;;;;;;4814189;29;20046;-81
2020/12/12 03:01:32;;;;;;;9.17;5.03;;;5.70;94.60;;;;;;4799257;29;20053;-81
2020/12/12 03:03:58;;;;;;;10.30;5.30;;;5.70;94.60;;;;;;4814498;29;20038;-80
2020/12/12 03:06:25;;;;;;;9.53;5.60;;;5.70;94.60;;;;;;4814169;29;20050;-80
2020/12/12 03:08:51;;;;;;;11.00;5.60;;;5.70;94.60;;;;;;4844917;29;20050;-80
2020/12/12 03:11:18;;;;;;;9.77;5.50;;;5.70;94.60;;;;;;4798708;29;20050;-80
2020/12/12 03:13:45;;;;;;;8.70;4.40;;;5.70;94.60;;;;;;4813911;29;20559;-80
2020/12/12 03:16:11;;;;;;;11.20;5.90;;;5.70;94.60;;;;;;4832921;29;20195;-80
2020/12/12 03:18:38;;;;;;;11.50;6.00;;;5.80;94.60;;;;;;4819832;29;20095;-80
2020/12/12 03:21:05;;;;;;;10.77;5.47;;;5.80;94.60;;;;;;4845161;29;20117;-81
2020/12/12 03:23:31;;;;;;;10.50;5.10;;;5.80;94.60;;;;;;4828781;29;20042;-80
2020/12/12 03:25:58;;;;;;;11.17;5.53;;;5.80;94.60;;;;;;4813651;29;20479;-80
2020/12/12 03:28:24;;;;;;;10.80;5.57;;;5.80;94.60;;;;;;4843791;29;20050;-81
2020/12/12 03:30:51;;;;;;;11.90;6.37;;;5.80;94.60;;;;;;4828641;29;20080;-80
2020/12/12 03:33:17;;;;;;;10.90;5.13;;;5.80;94.60;;;;;;4813525;29;20102;-80
2020/12/12 03:35:44;;;;;;;9.50;4.67;;;5.80;94.60;;;;;;4828300;29;20110;-80
2020/12/12 03:38:10;;;;;;;10.37;5.27;;;5.80;94.60;;;;;;4813822;29;20046;-80
2020/12/12 03:40:37;;;;;;;10.93;5.77;;;5.80;94.60;;;;;;4827247;29;20570;-76
2020/12/12 03:43:03;;;;;;;12.73;6.80;;;5.80;94.60;;;;;;4810050;29;20386;-76
2020/12/12 03:45:29;;;;;;;14.97;5.87;;;5.80;94.60;;;;;;4828149;29;20566;-76
2020/12/12 03:47:56;;;;;;;10.57;5.47;;;5.80;94.90;;;;;;4827780;29;20106;-76
2020/12/12 03:50:27;;;;;;;9.47;4.70;;;5.80;94.70;;;;;;4802266;29;20122;-76
2020/12/12 03:52:56;;;;;;;8.73;4.67;;;5.80;94.60;;;;;;4811196;29;20099;-76
2020/12/12 03:55:23;;;;;;;9.70;5.27;;;5.80;94.70;;;;;;4828203;29;20125;-76
2020/12/12 03:57:49;;;;;;;8.93;4.57;;;5.80;94.60;;;;;;4812006;29;20521;-76
2020/12/12 04:00:16;;;;;;;9.57;5.10;;;5.80;94.70;;;;;;4856678;29;20129;-76
2020/12/12 04:02:42;;;;;;;10.03;4.57;;;5.80;94.70;;;;;;4843146;29;20111;-76
2020/12/12 04:05:09;;;;;;;8.83;4.73;;;5.80;94.60;;;;;;4812550;29;20455;-76
2020/12/12 04:07:36;;;;;;;10.17;5.33;;;5.90;94.70;;;;;;4828030;29;20093;-76
2020/12/12 04:10:03;;;;;;;11.37;5.73;;;5.80;94.60;;;;;;4808317;29;20118;-76
2020/12/12 04:12:30;;;;;;;9.77;5.07;;;5.90;94.60;;;;;;4827994;29;20053;-76
2020/12/12 04:14:56;;;;;;;11.00;4.90;;;5.90;94.60;;;;;;4812700;29;20466;-76
2020/12/12 04:17:24;;;;;;;10.67;4.93;;;5.80;94.60;;;;;;4844653;29;20068;-76
2020/12/12 04:19:50;;;;;;;9.23;4.80;;;5.90;94.70;;;;;;4809609;29;20038;-76
2020/12/12 04:22:17;;;;;;;10.37;4.80;;;5.90;94.70;;;;;;4842194;29;20069;-76
2020/12/12 04:24:43;;;;;;;10.97;5.93;;;5.90;94.60;;;;;;4827784;29;20084;-76
2020/12/12 04:27:10;;;;;;;9.47;5.20;;;5.90;94.60;;;;;;4839493;29;20061;-76
2020/12/12 04:29:37;;;;;;;10.97;5.17;;;5.90;94.70;;;;;;4827591;29;20041;-76
2020/12/12 04:32:04;;;;;;;9.50;5.40;;;5.90;94.60;;;;;;4818878;29;20437;-76
2020/12/12 04:34:31;;;;;;;11.23;6.03;;;5.90;94.70;;;;;;4813010;29;20042;-76
2020/12/12 04:36:58;;;;;;;8.87;4.93;;;5.90;94.70;;;;;;4805888;29;20047;-76
2020/12/12 04:39:25;;;;;;;10.53;4.87;;;5.90;94.60;;;;;;4826629;29;20459;-76
2020/12/12 04:41:52;;;;;;;11.47;5.30;;;5.90;94.60;;;;;;4827623;29;20098;-76
2020/12/12 04:44:18;;;;;;;9.50;4.27;;;5.90;94.60;;;;;;4843496;29;20065;-77
2020/12/12 04:46:45;;;;;;;10.37;4.90;;;5.90;94.60;;;;;;4817976;29;20057;-76
2020/12/12 04:49:12;;;;;;;10.13;5.90;;;5.90;94.90;;;;;;4828794;29;20102;-76
2020/12/12 04:51:39;;;;;;;8.80;4.53;;;6.00;94.70;;;;;;4826754;29;20098;-76
2020/12/12 04:54:08;;;;;;;9.13;5.07;;;5.90;94.70;;;;;;4840477;29;20096;-76
2020/12/12 04:56:36;;;;;;;10.23;4.83;;;6.00;94.70;;;;;;4811260;29;20049;-76
2020/12/12 04:59:03;;;;;;;8.30;5.30;;;6.00;94.70;;;;;;4825869;29;20058;-76
2020/12/12 05:01:32;;;;;;;9.80;4.73;;;6.00;94.70;;;;;;4811126;29;20050;-76
2020/12/12 05:04:02;;;;;;;10.77;5.87;;;6.00;94.70;;;;;;4811940;29;20054;-76
2020/12/12 05:06:30;;;;;;;11.17;5.50;;;6.00;94.70;;;;;;4826879;29;20058;-76
2020/12/12 05:08:57;;;;;;;10.70;5.13;;;6.00;94.70;;;;;;4842588;29;20551;-76
2020/12/12 05:11:26;;;;;;;8.57;4.60;;;6.00;94.70;;;;;;4810990;29;20566;-76
2020/12/12 05:13:53;;;;;;;10.07;5.07;;;6.00;94.70;;;;;;4796652;29;20045;-76
2020/12/12 05:16:20;;;;;;;8.57;4.47;;;6.00;94.70;;;;;;4829894;29;20072;-76
2020/12/12 05:18:48;;;;;;;9.70;5.20;;;6.00;94.70;;;;;;4829088;29;20486;-76
2020/12/12 05:21:15;;;;;;;9.57;4.80;;;6.00;94.70;;;;;;4826936;29;20168;-76
2020/12/12 05:23:41;;;;;;;8.83;4.83;;;6.10;94.70;;;;;;4811284;29;20053;-76
2020/12/12 05:26:12;;;;;;;9.47;5.00;;;6.00;94.70;;;;;;4825549;29;20038;-76
2020/12/12 05:28:40;;;;;;;11.33;6.17;;;6.00;94.70;;;;;;4838658;29;20172;-76
2020/12/12 05:31:09;;;;;;;9.60;5.10;;;6.10;94.70;;;;;;4826963;29;20098;-76
2020/12/12 05:33:35;;;;;;;6.90;4.03;;;6.10;94.70;;;;;;4821087;29;20056;-76
2020/12/12 05:36:03;;;;;;;9.30;4.77;;;6.10;94.70;;;;;;4826291;29;20453;-76
2020/12/12 05:38:29;;;;;;;8.90;4.40;;;6.10;94.70;;;;;;4811493;29;20462;-76
2020/12/12 05:40:56;;;;;;;6.87;3.50;;;6.10;94.70;;;;;;4826203;29;20532;-76
2020/12/12 05:43:33;;;;;;;9.03;4.73;;;6.10;94.70;;;;;;4826734;29;20058;-76
2020/12/12 05:46:00;;;;;;;8.00;4.37;;;6.10;94.70;;;;;;4825520;29;20114;-76
2020/12/12 05:48:27;;;;;;;12.33;5.23;;;6.10;94.70;;;;;;4826368;29;20048;-76
2020/12/12 05:50:55;;;;;;;9.50;4.53;;;6.10;94.70;;;;;;4825949;29;20061;-76
2020/12/12 05:53:23;;;;;;;7.93;3.83;;;6.10;94.70;;;;;;4854907;29;20491;-76
2020/12/12 05:55:54;;;;;;;7.00;3.80;;;6.10;94.70;;;;;;4836761;29;20511;-76
2020/12/12 05:58:22;;;;;;;8.73;4.57;;;6.10;94.70;;;;;;4854189;29;20046;-76
2020/12/12 06:00:49;;;;;;;7.07;3.73;;;6.10;94.70;;;;;;4844254;29;20440;-76
2020/12/12 06:03:30;;;;;;;7.93;3.63;;;6.10;94.70;;;;;;4829217;29;20068;-76
2020/12/12 06:06:05;;;;;;;8.27;3.80;;;6.10;94.70;;;;;;4829599;29;20053;-76
2020/12/12 06:08:37;;;;;;;7.30;3.20;;;6.20;94.70;;;;;;4842378;29;20065;-76
2020/12/12 06:11:08;;;;;;;7.73;3.50;;;6.20;94.70;;;;;;4820370;29;20459;-76
2020/12/12 06:13:37;;;;;;;7.97;3.93;;;6.20;94.90;;;;;;4859416;29;20041;-76
2020/12/12 06:16:08;;;;;;;8.03;4.07;;;6.20;94.70;;;;;;4860191;29;20133;-76
2020/12/12 06:18:55;;;;;;;6.87;3.63;;;6.20;94.70;;;;;;4839946;29;20115;-76
2020/12/12 06:21:23;;;;;;;7.23;4.17;;;6.20;94.70;;;;;;4860231;29;20057;-76
2020/12/12 06:23:50;;;;;;;7.30;3.53;;;6.20;94.70;;;;;;4844148;29;20056;-76
2020/12/12 06:26:20;;;;;;;6.40;3.03;;;6.20;94.70;;;;;;4860524;29;20102;-76
2020/12/12 06:28:47;;;;;;;7.17;3.60;;;6.20;94.70;;;;;;4859144;29;20081;-76
2020/12/12 06:31:13;;;;;;;6.97;3.20;;;6.20;94.70;;;;;;4813401;29;20379;-76
2020/12/12 06:33:50;;;;;;;6.93;3.67;;;6.20;94.70;;;;;;4844227;29;20073;-76
2020/12/12 06:36:27;;;;;;;9.10;4.30;;;6.20;94.70;;;;;;4841592;29;20042;-76
2020/12/12 06:39:21;;;;;;;8.80;4.20;;;6.30;94.70;;;;;;4839556;29;20049;-76
2020/12/12 06:42:12;;;;;;;6.20;3.22;;;6.30;94.70;;;;;;4828819;29;20076;-76
2020/12/12 06:44:42;;;;;;;7.53;3.53;;;6.30;94.70;;;;;;4860411;29;20077;-76
2020/12/12 06:47:09;;;;;;;6.37;2.90;;;6.30;94.70;;;;;;4844627;29;20502;-76
2020/12/12 06:49:36;;;;;;;6.10;2.80;;;6.20;94.70;;;;;;4828912;29;20045;-76
2020/12/12 06:52:03;;;;;;;7.00;3.43;;;6.30;94.70;;;;;;4828903;29;20053;-76
2020/12/12 06:54:30;;;;;;;5.77;2.60;;;6.30;94.70;;;;;;4828994;29;20065;-76
2020/12/12 06:56:56;;;;;;;7.30;3.03;;;6.30;94.70;;;;;;4843682;29;20447;-76
2020/12/12 06:59:29;;;;;;;7.37;3.90;;;6.30;94.70;;;;;;4859868;29;20033;-76
2020/12/12 07:02:00;;;;;;;6.63;3.10;;;6.30;94.70;;;;;;4860049;29;20093;-76
2020/12/12 07:04:37;;;;;;;6.70;3.37;;;6.30;94.70;;;;;;4845216;29;20042;-76
2020/12/12 07:07:10;;;;;;;6.30;3.10;;;6.30;94.70;;;;;;4858460;29;20505;-76
2020/12/12 07:09:41;;;;;;;6.20;3.77;;;6.30;94.70;;;;;;4855505;29;20098;-76
2020/12/12 07:12:09;;;;;;;5.93;3.20;;;6.30;94.70;;;;;;4842630;29;20132;-76
2020/12/12 07:14:37;;;;;;;6.23;2.93;;;6.30;94.70;;;;;;4860025;29;20116;-76
2020/12/12 07:17:05;;;;;;;4.93;2.57;;;6.30;94.70;;;;;;4859559;29;20144;-76
2020/12/12 07:19:37;;;;;;;6.33;3.07;;;6.40;94.70;;;;;;4860112;29;20048;-76
2020/12/12 07:22:06;;;;;;;5.70;3.08;;;6.40;94.70;;;;;;4845866;29;20050;-76
2020/12/12 07:24:33;;;;;;;5.60;2.47;;;6.40;94.70;;;;;;4843734;29;20140;-76
2020/12/12 07:27:01;;;;;;;4.57;2.43;;;6.40;94.70;;;;;;4858735;29;20053;-76
2020/12/12 07:29:30;;;;;;;6.87;2.73;;;6.40;94.70;;;;;;4847106;29;20493;-76
2020/12/12 07:31:57;;;;;;;6.37;2.60;;;6.40;94.70;;;;;;4858781;29;20054;-76
2020/12/12 07:34:25;;;;;;;5.47;2.47;;;6.50;94.70;;;;;;4831053;29;20049;-76
2020/12/12 07:36:59;;;;;;;5.60;2.67;;;6.50;94.70;;;;;;4831342;29;20061;-76
2020/12/12 07:39:31;;;;;;;6.83;3.47;;;6.50;94.70;;;;;;4862789;29;20475;-76
2020/12/12 07:42:00;;;;;;;5.13;2.47;;;6.50;94.70;;;;;;4845686;29;20053;-76
2020/12/12 07:44:30;;;;;;;6.87;2.80;;;6.50;94.70;;;;;;4846501;29;20395;-76
2020/12/12 07:47:05;;;;;;;5.67;3.20;;;6.50;94.70;;;;;;4831354;29;20049;-76
2020/12/12 07:49:37;;;;;;;7.43;3.47;;;6.50;94.70;;;;;;4847274;29;20060;-76
2020/12/12 07:52:05;;;;;;;6.13;2.93;;;6.50;94.70;;;;;;4831290;29;20137;-76
2020/12/12 07:54:35;;;;;;;7.87;3.20;;;6.50;94.70;;;;;;4846513;29;20045;-76
2020/12/12 07:57:03;;;;;;;6.70;3.00;;;6.50;94.70;;;;;;4846402;29;20046;-76
2020/12/12 07:59:31;;;;;;;6.87;3.47;;;6.50;94.70;;;;;;4861902;29;20050;-76
2020/12/12 08:02:05;;;;;;;8.53;3.57;;;6.60;95.00;;;;;;4846381;29;20049;-76
2020/12/12 08:04:32;;;;;;;7.13;3.30;;;6.60;94.70;;;;;;4831496;29;20451;-76
2020/12/12 08:07:20;;;;;;;7.70;3.43;;;6.50;94.70;;;;;;4844269;29;20512;-76
2020/12/12 08:09:52;;;;;;;6.50;3.17;;;6.60;94.70;;;;;;4860394;29;20132;-76
2020/12/12 08:12:32;;;;;;;7.33;3.70;;;6.60;94.70;;;;;;4845846;29;20045;-76
2020/12/12 08:15:18;;;;;;;9.17;4.30;;;6.60;94.70;;;;;;4862316;29;20045;-76
2020/12/12 08:17:45;;;;;;;10.93;4.40;;;6.60;94.70;;;;;;4843893;29;20057;-76
2020/12/12 08:20:17;;;;;;;9.37;4.20;;;6.50;94.70;;;;;;4857170;29;20049;-76
2020/12/12 08:22:44;;;;;;;10.67;4.13;;;6.60;95.00;;;;;;4846063;29;20041;-76
2020/12/12 08:25:11;;;;;;;9.17;4.27;;;6.60;94.70;;;;;;4827667;29;20095;-76
2020/12/12 08:27:38;;;;;;;10.23;4.20;;;6.60;94.70;;;;;;4845657;29;20572;-76
2020/12/12 08:30:09;;;;;;;7.77;4.03;;;6.60;94.70;;;;;;4860900;29;20041;-76
2020/12/12 08:32:43;;;;;;;9.73;4.37;;;6.60;94.70;;;;;;4837694;29;20050;-76
2020/12/12 08:35:15;;;;;;;9.27;4.27;;;6.60;94.70;;;;;;4827714;29;20041;-76
2020/12/12 08:38:08;;;;;;;10.53;4.10;;;6.70;94.70;;;;;;4837998;29;20562;-76
2020/12/12 08:40:49;;;;;;;9.88;4.03;;;6.70;94.70;;;;;;4849690;29;20041;-87
2020/12/12 08:43:17;;;;;;;8.10;3.73;;;6.70;94.70;;;;;;4844349;29;20053;-76
2020/12/12 08:45:54;;;;;;;8.10;4.00;;;6.70;94.70;;;;;;4828929;29;20558;-76
2020/12/12 08:48:21;;;;;;;9.27;3.50;;;6.70;94.70;;;;;;4858536;29;20089;-76
2020/12/12 08:50:51;;;;;;;10.53;4.33;;;6.70;94.70;;;;;;4852672;29;20113;-76
2020/12/12 08:53:23;;;;;;;9.97;3.37;;;6.80;94.70;;;;;;4857674;29;20464;-74
2020/12/12 08:56:04;;;;;;;8.90;3.57;;;6.80;94.70;;;;;;4860835;29;21068;-74
2020/12/12 08:58:34;;;;;;;8.30;3.00;;;6.80;94.70;;;;;;4842907;29;20052;-75
2020/12/12 09:01:44;;;;;;;9.83;4.23;;;6.80;94.70;;;;;;4861169;29;20056;-75
2020/12/12 09:04:12;;;;;;;8.07;3.70;;;6.90;94.70;;;;;;4843674;29;20049;-75
2020/12/12 09:06:44;;;;;;;8.20;3.97;;;6.80;94.70;;;;;;4828726;29;20049;-75
2020/12/12 09:09:21;;;;;;;9.77;3.93;;;6.80;94.70;;;;;;4860502;29;20501;-75
2020/12/12 09:11:58;;;;;;;9.32;3.63;;;6.90;94.70;;;;;;4858681;29;20060;-75
2020/12/12 09:14:26;;;;;;;7.00;2.70;;;6.90;94.70;;;;;;4849805;29;20089;-75
2020/12/12 09:17:02;;;;;;;9.67;3.77;;;6.90;94.70;;;;;;4843520;29;20069;-76
2020/12/12 09:19:29;;;;;;;8.17;3.60;;;6.90;94.70;;;;;;4843977;29;20494;-81
2020/12/12 09:21:57;;;;;;;9.33;4.03;;;6.90;94.70;;;;;;4842852;29;20050;-77
2020/12/12 09:24:24;;;;;;;10.00;3.57;;;6.90;94.70;;;;;;4818720;29;20052;-76
2020/12/12 09:26:57;;;;;;;9.23;4.77;;;6.90;94.70;;;;;;4840046;29;20470;-76
2020/12/12 09:29:24;;;;;;;10.67;4.20;;;7.00;94.70;;;;;;4842980;29;20517;-76
2020/12/12 09:31:52;;;;;;;9.80;3.90;;;7.00;94.70;;;;;;4854738;29;20298;-76
2020/12/12 09:34:18;;;;;;;9.20;4.07;;;7.00;94.70;;;;;;4829288;29;20450;-76
2020/12/12 09:36:47;;;;;;;8.97;4.67;;;7.00;94.70;;;;;;4829096;29;20049;-76
2020/12/12 09:39:13;;;;;;;10.47;4.03;;;7.00;94.70;;;;;;4860173;29;20132;-76
2020/12/12 09:41:40;;;;;;;9.60;3.80;;;7.00;94.70;;;;;;4844074;29;20042;-75
2020/12/12 09:44:06;;;;;;;9.30;3.90;;;7.00;94.70;;;;;;4843204;29;20124;-76
2020/12/12 09:46:34;;;;;;;7.90;3.93;;;7.10;94.70;;;;;;4828422;29;20093;-75
2020/12/12 09:49:01;;;;;;;8.57;3.40;;;7.10;94.80;;;;;;4843459;29;20053;-75
2020/12/12 09:51:27;;;;;;;8.90;4.00;;;7.10;94.70;;;;;;4858651;29;20529;-75
2020/12/12 09:53:54;;;;;;;9.20;4.30;;;7.10;94.80;;;;;;4820302;29;20482;-75
2020/12/12 09:56:21;;;;;;;11.23;4.40;;;7.10;94.70;;;;;;4838565;29;20088;-75
2020/12/12 09:58:47;;;;;;;14.27;6.07;;;7.20;94.70;;;;;;4843240;29;20098;-75
2020/12/12 10:01:17;;;;;;;9.33;4.00;;;7.10;94.70;;;;;;4828384;29;20391;-75
2020/12/12 10:03:43;;;;;;;9.40;4.07;;;7.20;94.70;;;;;;4843482;29;20053;-75
2020/12/12 10:06:10;;;;;;;9.80;4.20;;;7.20;94.70;;;;;;4827247;29;20132;-75
2020/12/12 10:08:38;;;;;;;12.37;4.97;;;7.20;94.70;;;;;;4860242;29;20486;-80
2020/12/12 10:11:09;;;;;;;10.33;5.10;;;7.20;94.70;;;;;;4853007;29;20050;-80
2020/12/12 10:13:38;;;;;;;9.90;4.35;;;7.30;94.70;;;;;;4841517;29;20068;-79
2020/12/12 10:16:05;;;;;;;9.70;4.67;;;7.20;94.70;;;;;;4835235;29;20142;-79
2020/12/12 10:18:31;;;;;;;10.73;4.80;;;7.30;94.70;;;;;;4850135;29;20046;-80
2020/12/12 10:20:58;;;;;;;9.87;4.83;;;7.30;94.70;;;;;;4841225;29;20077;-80
2020/12/12 10:23:25;;;;;;;10.10;5.17;;;7.30;94.70;;;;;;4838646;29;20098;-79
2020/12/12 10:25:51;;;;;;;9.60;4.87;;;7.30;94.70;;;;;;4860901;29;20117;-80
2020/12/12 10:28:18;;;;;;;11.97;4.80;;;7.30;94.70;;;;;;4833245;29;20054;-79
2020/12/12 10:30:44;;;;;;;10.10;4.27;;;7.40;94.70;;;;;;4829991;29;20136;-79
2020/12/12 10:33:11;;;;;;;11.37;4.43;;;7.40;94.90;;;;;;4844283;29;20045;-80
2020/12/12 10:35:38;;;;;;;10.87;4.53;;;7.40;94.70;;;;;;4844290;29;20502;-79
2020/12/12 10:38:05;;;;;;;9.03;4.03;;;7.40;94.70;;;;;;4849371;29;20080;-79
2020/12/12 10:40:34;;;;;;;9.40;4.00;;;7.40;94.70;;;;;;4844275;29;20074;-80
2020/12/12 10:43:03;;;;;;;12.50;5.20;;;7.50;94.70;;;;;;4829261;29;20053;-80
2020/12/12 10:45:29;;;;;;;10.30;4.87;;;7.50;94.70;;;;;;4843124;29;20148;-80
2020/12/12 10:48:34;;;;;;;12.40;4.67;;;7.50;94.60;;;;;;4843616;29;20429;-80
2020/12/12 10:51:01;;;;;;;12.13;4.47;;;7.50;94.60;;;;;;4851363;29;20132;-79
2020/12/12 10:53:30;;;;;;;10.83;4.50;;;7.50;94.80;;;;;;4859126;29;20073;-78
2020/12/12 10:55:59;;;;;;;11.97;5.00;;;7.50;94.70;;;;;;4828643;29;20072;-79
2020/12/12 10:58:26;;;;;;;12.50;5.23;;;7.50;94.70;;;;;;4848960;29;20065;-79
2020/12/12 11:00:53;;;;;;;10.67;4.87;;;7.50;94.70;;;;;;4828609;29;20462;-79
2020/12/12 11:03:20;;;;;;;13.77;5.57;;;7.60;94.70;;;;;;4828184;29;20451;-79
2020/12/12 11:05:46;;;;;;;13.23;6.23;;;7.60;94.70;;;;;;4828421;29;20054;-79
2020/12/12 11:08:16;;;;;;;11.90;5.47;;;7.60;94.70;;;;;;4840384;29;20468;-79
2020/12/12 11:10:42;;;;;;;14.27;5.93;;;7.60;94.70;;;;;;4831957;29;20458;-79
2020/12/12 11:13:09;;;;;;;11.43;5.37;;;7.60;94.70;;;;;;4831917;29;20105;-78
2020/12/12 11:15:39;;;;;;;10.63;4.47;;;7.70;94.70;;;;;;4827232;29;20041;-78
2020/12/12 11:18:06;;;;;;;9.13;4.27;;;7.60;94.70;;;;;;4809369;29;20156;-79
2020/12/12 11:20:33;;;;;;;9.70;4.93;;;7.70;94.70;;;;;;4819674;29;20046;-79
2020/12/12 11:22:59;;;;;;;12.23;4.83;;;7.70;94.70;;;;;;4828606;29;20046;-79
2020/12/12 11:25:29;;;;;;;10.03;4.20;;;7.70;94.70;;;;;;4838114;29;20494;-80
2020/12/12 11:27:56;;;;;;;10.53;4.97;;;7.70;94.70;;;;;;4818359;29;20527;-81
2020/12/12 11:30:24;;;;;;;12.67;5.50;;;7.70;94.70;;;;;;4828384;29;20069;-79
2020/12/12 11:32:53;;;;;;;14.07;4.80;;;7.80;94.70;;;;;;4797384;29;20403;-76
2020/12/12 11:35:26;;;;;;;16.30;5.10;;;7.80;94.70;;;;;;4844458;29;20045;-77
2020/12/12 11:38:13;;;;;;;11.60;4.73;;;7.80;94.60;;;;;;4823266;29;20058;-80
2020/12/12 11:46:26;;;;;;;11.63;4.57;;;7.90;94.70;;;;;;4826057;29;20121;-76
2020/12/12 11:48:54;;;;;;;12.83;4.50;;;7.90;94.70;;;;;;4844156;29;20057;-76
2020/12/12 11:51:20;;;;;;;9.47;4.07;;;8.00;94.70;;;;;;4827490;29;20046;-77
2020/12/12 11:53:47;;;;;;;9.57;4.50;;;8.00;94.60;;;;;;4824946;29;20099;-78
2020/12/12 11:56:33;;;;;;;10.30;3.93;;;8.10;94.60;;;;;;4839062;29;20049;-77
2020/12/12 11:58:59;;;;;;;11.17;4.47;;;8.10;94.50;;;;;;4836332;29;20111;-78
2020/12/12 12:01:27;;;;;;;8.30;4.30;;;8.10;94.60;;;;;;4823094;29;20048;-81
2020/12/12 12:03:56;;;;;;;11.57;4.90;;;8.10;94.60;;;;;;4844116;29;20128;-77
2020/12/12 12:06:23;;;;;;;10.90;4.57;;;8.10;94.60;;;;;;4842554;29;20133;-76
2020/12/12 12:11:34;;;;;;;8.83;4.73;;;8.10;94.60;;;;;;4842155;29;20559;-78
2020/12/12 12:14:06;;;;;;;8.07;4.00;;;8.10;94.60;;;;;;4815642;29;20102;-84
2020/12/12 12:16:38;;;;;;;7.57;3.75;;;8.10;94.60;;;;;;4827657;29;20054;-77
2020/12/12 12:19:05;;;;;;;9.73;4.23;;;8.10;94.60;;;;;;4832731;29;20053;-82
2020/12/12 12:21:34;;;;;;;8.87;4.37;;;8.10;94.70;;;;;;4842755;29;20046;-79
2020/12/12 12:24:05;;;;;;;11.03;4.57;;;8.10;94.70;;;;;;4842762;29;20075;-78
2020/12/12 12:26:36;;;;;;;8.43;3.50;;;8.20;94.70;;;;;;4827480;29;20046;-84
2020/12/12 12:29:05;;;;;;;7.65;3.83;;;8.10;94.60;;;;;;4799586;29;20140;-83
2020/12/12 12:31:32;;;;;;;10.13;4.37;;;8.20;94.70;;;;;;4842597;29;20102;-78
2020/12/12 12:33:59;;;;;;;8.80;3.73;;;8.20;94.60;;;;;;4842371;29;20137;-84
2020/12/12 12:36:29;;;;;;;9.47;4.07;;;8.20;94.60;;;;;;4827262;29;20483;-79
2020/12/12 12:38:58;;;;;;;7.17;3.63;;;8.20;94.60;;;;;;4827872;29;20440;-79
2020/12/12 12:41:28;;;;;;;6.90;3.77;;;8.30;94.60;;;;;;4835282;29;20465;-80
2020/12/12 12:44:00;;;;;;;9.70;4.00;;;8.30;94.60;;;;;;4825544;29;20090;-83
2020/12/12 12:46:36;;;;;;;7.32;3.47;;;8.30;94.60;;;;;;4834810;29;20045;-82
2020/12/12 12:49:03;;;;;;;8.27;4.00;;;8.30;94.70;;;;;;4836651;29;20140;-80
2020/12/12 12:51:30;;;;;;;10.67;4.20;;;8.30;94.70;;;;;;4827106;29;20440;-77
2020/12/12 12:53:56;;;;;;;7.60;4.00;;;8.30;94.70;;;;;;4827090;29;20065;-78
2020/12/12 12:56:24;;;;;;;9.87;4.33;;;8.30;94.60;;;;;;4818402;29;20045;-79
2020/12/12 12:58:52;;;;;;;8.17;4.00;;;8.30;94.70;;;;;;4796821;29;20069;-85
2020/12/12 13:01:21;;;;;;;10.43;4.23;;;8.30;94.70;;;;;;4812059;29;20038;-79
2020/12/12 13:03:49;;;;;;;8.13;3.53;;;8.30;94.70;;;;;;4842705;29;20050;-79
2020/12/12 13:06:26;;;;;;;10.43;3.53;;;8.30;94.70;;;;;;4826348;29;20593;-83
2020/12/12 13:09:08;;;;;;;12.25;5.00;;;8.30;94.60;;;;;;4815768;29;20054;-81
2020/12/12 13:11:35;;;;;;;8.13;3.70;;;8.30;94.70;;;;;;4811268;29;20081;-81